createdAt,value
2024-05-09T00:00:44.341Z,100.00
2024-05-09T00:03:12.502Z,100.00
2024-05-09T00:05:44.255Z,100.00
2024-05-09T00:08:12.523Z,100.00
2024-05-09T00:10:41.263Z,100.00
2024-05-09T00:13:11.174Z,100.00
2024-05-09T00:15:39.185Z,100.00
2024-05-09T00:18:07.977Z,100.00
2024-05-09T00:20:39.545Z,100.00
2024-05-09T00:23:13.742Z,100.00
2024-05-09T00:25:43.824Z,100.00
2024-05-09T00:28:12.731Z,100.00
2024-05-09T00:30:41.086Z,100.00
2024-05-09T00:33:10.340Z,100.00
2024-05-09T00:35:39.423Z,100.00
2024-05-09T00:38:07.425Z,100.00
2024-05-09T00:40:40.674Z,100.00
2024-05-09T00:43:14.962Z,100.00
2024-05-09T00:45:44.066Z,100.00
2024-05-09T00:48:15.201Z,100.00
2024-05-09T00:50:46.622Z,100.00
2024-05-09T00:53:16.523Z,100.00
2024-05-09T00:55:44.980Z,100.00
2024-05-09T00:58:16.541Z,100.00
2024-05-09T01:00:44.678Z,100.00
2024-05-09T01:03:14.093Z,100.00
2024-05-09T01:05:43.837Z,100.00
2024-05-09T01:08:12.925Z,100.00
2024-05-09T01:10:43.934Z,100.00
2024-05-09T01:13:13.131Z,100.00
2024-05-09T01:15:40.908Z,100.00
2024-05-09T01:18:12.661Z,100.00
2024-05-09T01:20:44.100Z,100.00
2024-05-09T01:23:15.652Z,100.00
2024-05-09T01:25:46.202Z,100.00
2024-05-09T01:28:15.263Z,100.00
2024-05-09T01:30:43.002Z,100.00
2024-05-09T01:33:12.178Z,100.00
2024-05-09T01:35:42.290Z,100.00
2024-05-09T01:38:17.409Z,100.00
2024-05-09T01:40:45.573Z,100.00
2024-05-09T01:43:13.323Z,100.00
2024-05-09T01:45:41.556Z,100.00
2024-05-09T01:48:10.757Z,100.00
2024-05-09T01:50:41.949Z,100.00
2024-05-09T01:53:12.500Z,100.00
2024-05-09T01:55:40.653Z,100.00
2024-05-09T01:58:09.011Z,100.00
2024-05-09T02:00:41.048Z,100.00
2024-05-09T02:03:15.441Z,100.00
2024-05-09T02:05:47.375Z,100.00
2024-05-09T02:08:22.139Z,100.00
2024-05-09T02:10:51.503Z,100.00
2024-05-09T02:13:19.396Z,100.00
2024-05-09T02:15:47.155Z,100.00
2024-05-09T02:18:15.049Z,100.00
2024-05-09T02:20:43.570Z,100.00
2024-05-09T02:23:12.237Z,100.00
2024-05-09T02:25:41.803Z,100.00
2024-05-09T02:28:09.678Z,100.00
2024-05-09T02:30:40.720Z,100.00
2024-05-09T02:33:12.375Z,100.00
2024-05-09T02:35:43.762Z,100.00
2024-05-09T02:38:13.100Z,100.00
2024-05-09T02:40:41.294Z,100.00
2024-05-09T02:43:12.530Z,100.00
2024-05-09T02:45:41.021Z,100.00
2024-05-09T02:48:13.195Z,100.00
2024-05-09T02:50:42.191Z,100.00
2024-05-09T02:53:11.472Z,100.00
2024-05-09T02:55:40.234Z,100.00
2024-05-09T02:58:08.392Z,100.00
2024-05-09T03:00:39.974Z,100.00
2024-05-09T03:03:13.197Z,100.00
2024-05-09T03:05:45.834Z,100.00
2024-05-09T03:08:14.450Z,100.00
2024-05-09T03:10:42.917Z,100.00
2024-05-09T03:13:14.667Z,100.00
2024-05-09T03:15:44.844Z,100.00
2024-05-09T03:18:13.220Z,100.00
2024-05-09T03:20:41.230Z,100.00
2024-05-09T03:23:10.044Z,100.00
2024-05-09T03:25:39.012Z,100.00
2024-05-09T03:28:06.935Z,100.00
2024-05-09T03:30:41.084Z,100.00
2024-05-09T03:33:12.467Z,100.00
2024-05-09T03:35:41.262Z,100.00
2024-05-09T03:38:09.298Z,100.00
2024-05-09T03:40:44.160Z,100.00
2024-05-09T03:43:13.180Z,100.00
2024-05-09T03:45:41.036Z,100.00
2024-05-09T03:48:09.124Z,100.00
2024-05-09T03:50:37.451Z,100.00
2024-05-09T03:53:06.406Z,100.00
2024-05-09T03:55:34.226Z,100.00
2024-05-09T03:58:01.930Z,100.00
2024-05-09T04:00:36.949Z,100.00
2024-05-09T04:03:09.826Z,100.00
2024-05-09T04:05:44.588Z,100.00
2024-05-09T04:08:15.266Z,100.00
2024-05-09T04:10:43.583Z,100.00
2024-05-09T04:13:11.406Z,100.00
2024-05-09T04:15:39.625Z,100.00
2024-05-09T04:18:07.632Z,100.00
2024-05-09T04:20:39.223Z,100.00
2024-05-09T04:23:13.719Z,100.00
2024-05-09T04:25:47.005Z,100.00
2024-05-09T04:28:14.810Z,100.00
2024-05-09T04:30:43.094Z,100.00
2024-05-09T04:33:13.336Z,100.00
2024-05-09T04:35:43.301Z,100.00
2024-05-09T04:38:12.264Z,100.00
2024-05-09T04:40:40.073Z,100.00
2024-05-09T04:43:15.143Z,100.00
2024-05-09T04:45:43.866Z,100.00
2024-05-09T04:48:11.801Z,100.00
2024-05-09T04:50:40.086Z,100.00
2024-05-09T04:53:10.379Z,100.00
2024-05-09T04:55:40.048Z,100.00
2024-05-09T04:58:11.753Z,100.00
2024-05-09T05:00:40.677Z,100.00
2024-05-09T05:03:14.016Z,100.00
2024-05-09T05:05:45.155Z,100.00
2024-05-09T05:08:15.208Z,100.00
2024-05-09T05:10:43.802Z,100.00
2024-05-09T05:13:25.030Z,100.00
2024-05-09T05:15:56.804Z,100.00
2024-05-09T05:18:27.660Z,100.00
2024-05-09T05:20:56.572Z,100.00
2024-05-09T05:23:24.790Z,91.15
2024-05-09T05:25:55.431Z,84.11
2024-05-09T05:28:23.666Z,78.00
2024-05-09T05:30:51.452Z,72.75
2024-05-09T05:33:19.924Z,68.44
2024-05-09T05:35:48.370Z,67.83
2024-05-09T05:38:16.199Z,67.09
2024-05-09T05:40:43.927Z,66.90
2024-05-09T05:43:18.560Z,68.23
2024-05-09T05:45:46.997Z,65.89
2024-05-09T05:48:18.180Z,66.49
2024-05-09T05:50:46.598Z,63.39
2024-05-09T05:53:14.482Z,63.92
2024-05-09T05:55:42.598Z,62.57
2024-05-09T05:58:11.233Z,61.73
2024-05-09T06:00:41.103Z,60.40
2024-05-09T06:03:10.368Z,60.18
2024-05-09T06:05:46.195Z,59.65
2024-05-09T06:08:14.176Z,57.40
2024-05-09T06:10:42.617Z,56.31
2024-05-09T06:13:11.707Z,56.71
2024-05-09T06:15:40.864Z,55.38
2024-05-09T06:18:10.885Z,52.99
2024-05-09T06:20:43.028Z,53.36
2024-05-09T06:23:12.711Z,52.54
2024-05-09T06:25:42.195Z,51.02
2024-05-09T06:28:10.312Z,51.37
2024-05-09T06:30:42.112Z,52.70
2024-05-09T06:35:43.629Z,52.20
2024-05-09T06:38:11.813Z,52.88
2024-05-09T06:40:42.774Z,52.29
2024-05-09T06:43:16.755Z,51.88
2024-05-09T06:45:50.239Z,50.75
2024-05-09T06:48:19.935Z,50.57
2024-05-09T06:50:48.409Z,50.79
2024-05-09T06:53:17.149Z,51.79
2024-05-09T06:55:45.140Z,50.87
2024-05-09T06:58:12.891Z,50.45
2024-05-09T07:00:41.959Z,50.42
2024-05-09T07:03:12.946Z,50.38
2024-05-09T07:05:42.718Z,52.41
2024-05-09T07:08:10.895Z,52.88
2024-05-09T07:10:38.746Z,54.49
2024-05-09T07:13:14.293Z,55.08
2024-05-09T07:15:43.399Z,57.49
2024-05-09T07:18:20.033Z,57.06
2024-05-09T07:20:49.579Z,56.12
2024-05-09T07:23:19.075Z,56.27
2024-05-09T07:25:47.092Z,57.06
2024-05-09T07:28:16.835Z,56.84
2024-05-09T07:30:45.163Z,55.82
2024-05-09T07:33:17.772Z,53.84
2024-05-09T07:35:45.741Z,53.81
2024-05-09T07:38:13.856Z,54.08
2024-05-09T07:40:41.933Z,53.72
2024-05-09T07:43:14.205Z,54.11
2024-05-09T07:45:51.098Z,55.28
2024-05-09T07:52:38.358Z,53.09
2024-05-09T07:53:49.233Z,52.66
2024-05-09T07:56:22.468Z,53.37
2024-05-09T07:58:52.855Z,56.37
2024-05-09T08:01:21.278Z,57.19
2024-05-09T08:03:50.489Z,56.36
2024-05-09T08:06:18.636Z,55.67
2024-05-09T08:08:48.137Z,55.09
2024-05-09T08:11:16.195Z,56.39
2024-05-09T08:13:43.848Z,55.99
2024-05-09T08:16:13.689Z,55.38
2024-05-09T08:18:42.453Z,52.91
2024-05-09T08:21:10.246Z,53.23
2024-05-09T08:23:37.923Z,52.72
2024-05-09T08:26:06.510Z,53.57
2024-05-09T08:28:34.134Z,57.89
2024-05-09T08:31:06.033Z,56.60
2024-05-09T08:33:34.901Z,55.17
2024-05-09T08:36:02.817Z,55.62
2024-05-09T08:38:30.505Z,54.40
2024-05-09T08:40:58.181Z,54.26
2024-05-09T08:43:26.849Z,55.61
2024-05-09T08:45:54.524Z,55.82
2024-05-09T08:48:24.386Z,56.98
2024-05-09T08:51:30.122Z,57.12
2024-05-09T08:53:57.910Z,58.10
2024-05-09T08:56:28.478Z,58.19
2024-05-09T08:59:00.563Z,57.51
2024-05-09T09:01:32.067Z,57.15
2024-05-09T09:04:02.713Z,56.62
2024-05-09T09:06:33.287Z,56.30
2024-05-09T09:09:03.881Z,57.85
2024-05-09T09:11:31.621Z,58.92
2024-05-09T09:13:59.309Z,61.25
2024-05-09T09:16:37.084Z,63.50
2024-05-09T09:19:05.364Z,63.12
2024-05-09T09:21:33.037Z,63.49
2024-05-09T09:24:00.733Z,60.35
2024-05-09T09:26:32.461Z,59.71
2024-05-09T09:29:02.070Z,59.28
2024-05-09T09:31:30.960Z,58.71
2024-05-09T09:33:58.861Z,57.53
2024-05-09T09:36:30.066Z,56.82
2024-05-09T09:38:58.057Z,56.31
2024-05-09T09:41:30.736Z,56.84
2024-05-09T09:44:00.171Z,55.92
2024-05-09T09:46:29.420Z,55.87
2024-05-09T09:48:57.378Z,57.31
2024-05-09T09:51:26.320Z,57.86
2024-05-09T09:53:54.444Z,56.75
2024-05-09T09:56:23.328Z,58.59
2024-05-09T09:58:53.202Z,58.15
2024-05-09T10:01:20.965Z,57.23
2024-05-09T10:03:49.830Z,57.17
2024-05-09T10:06:19.010Z,57.03
2024-05-09T10:08:48.433Z,57.18
2024-05-09T10:11:20.579Z,57.46
2024-05-09T10:13:48.402Z,55.92
2024-05-09T10:16:22.710Z,55.29
2024-05-09T10:18:50.534Z,54.51
2024-05-09T10:21:19.533Z,54.91
2024-05-09T10:24:03.780Z,54.69
2024-05-09T10:26:36.158Z,56.53
2024-05-09T10:29:18.314Z,56.74
2024-05-09T10:31:48.222Z,58.86
2024-05-09T10:34:20.089Z,60.91
2024-05-09T10:36:53.267Z,61.83
2024-05-09T10:39:21.632Z,62.29
2024-05-09T10:41:49.948Z,61.26
2024-05-09T10:44:18.728Z,59.65
2024-05-09T10:46:46.535Z,59.24
2024-05-09T10:49:15.059Z,57.53
2024-05-09T10:51:45.086Z,57.20
2024-05-09T10:54:12.836Z,56.59
2024-05-09T10:56:42.144Z,56.53
2024-05-09T10:59:09.892Z,56.62
2024-05-09T11:01:37.737Z,57.52
2024-05-09T11:04:05.899Z,56.57
2024-05-09T11:06:36.103Z,56.87
2024-05-09T11:09:04.150Z,56.77
2024-05-09T11:11:32.306Z,55.61
2024-05-09T11:13:59.980Z,56.16
2024-05-09T11:16:27.665Z,55.65
2024-05-09T11:18:57.219Z,55.38
2024-05-09T11:21:25.495Z,55.51
2024-05-09T11:23:53.432Z,55.64
2024-05-09T11:26:22.383Z,57.55
2024-05-09T11:28:51.051Z,55.40
2024-05-09T11:31:19.088Z,55.33
2024-05-09T11:33:47.173Z,57.27
2024-05-09T11:36:15.511Z,58.61
2024-05-09T11:38:43.366Z,58.71
2024-05-09T11:41:18.805Z,58.09
2024-05-09T11:43:46.741Z,56.58
2024-05-09T11:46:14.768Z,55.99
2024-05-09T11:48:42.864Z,56.79
2024-05-09T11:51:10.565Z,57.03
2024-05-09T11:53:38.219Z,56.51
2024-05-09T11:56:05.998Z,56.27
2024-05-09T11:58:34.930Z,54.04
2024-05-09T12:01:02.949Z,54.21
2024-05-09T12:03:31.157Z,54.52
2024-05-09T12:05:59.067Z,54.93
2024-05-09T12:08:26.950Z,54.99
2024-05-09T12:10:54.646Z,54.35
2024-05-09T12:13:22.482Z,54.48
2024-05-09T12:15:50.333Z,54.79
2024-05-09T12:18:18.068Z,54.75
2024-05-09T12:20:45.680Z,55.45
2024-05-09T12:23:13.435Z,55.49
2024-05-09T12:25:41.140Z,55.85
2024-05-09T12:28:09.154Z,55.14
2024-05-09T12:30:40.142Z,55.64
2024-05-09T12:33:12.357Z,55.17
2024-05-09T12:35:44.110Z,55.58
2024-05-09T12:38:15.373Z,56.61
2024-05-09T12:40:43.577Z,55.17
2024-05-09T12:43:12.607Z,55.28
2024-05-09T12:45:40.767Z,53.87
2024-05-09T12:48:12.466Z,55.30
2024-05-09T12:50:41.635Z,55.83
2024-05-09T12:53:09.957Z,56.11
2024-05-09T12:55:44.994Z,56.50
2024-05-09T12:58:22.516Z,54.85
2024-05-09T13:00:52.064Z,56.14
2024-05-09T13:03:20.357Z,56.00
2024-05-09T13:05:49.671Z,55.12
2024-05-09T13:08:17.518Z,55.25
2024-05-09T13:10:45.191Z,55.57
2024-05-09T13:13:13.157Z,55.34
2024-05-09T13:15:42.091Z,55.94
2024-05-09T13:18:10.091Z,55.08
2024-05-09T13:20:37.784Z,55.06
2024-05-09T13:23:08.087Z,56.17
2024-05-09T13:25:37.856Z,54.07
2024-05-09T13:28:06.968Z,52.39
2024-05-09T13:30:40.355Z,51.98
2024-05-09T13:33:12.023Z,52.88
2024-05-09T13:35:47.544Z,53.08
2024-05-09T13:38:19.328Z,52.14
2024-05-09T13:40:47.764Z,53.11
2024-05-09T13:43:16.132Z,53.72
2024-05-09T13:45:44.089Z,53.24
2024-05-09T13:48:12.210Z,53.56
2024-05-09T13:50:40.434Z,53.21
2024-05-09T13:53:08.981Z,53.65
2024-05-09T13:55:39.922Z,53.66
2024-05-09T13:58:09.128Z,52.86
2024-05-09T14:00:45.897Z,52.98
2024-05-09T14:03:18.897Z,51.37
2024-05-09T14:05:55.710Z,51.39
2024-05-09T14:08:26.146Z,49.88
2024-05-09T14:10:54.137Z,48.97
2024-05-09T14:13:22.036Z,49.81
2024-05-09T14:15:50.275Z,50.96
2024-05-09T14:18:18.266Z,51.02
2024-05-09T14:20:45.977Z,51.31
2024-05-09T14:23:14.725Z,51.36
2024-05-09T14:25:43.895Z,49.97
2024-05-09T14:28:13.436Z,50.50
2024-05-09T14:30:42.185Z,50.54
2024-05-09T14:33:11.426Z,50.27
2024-05-09T14:35:39.480Z,50.19
2024-05-09T14:38:08.850Z,50.46
2024-05-09T14:40:42.092Z,50.04
2024-05-09T14:43:13.742Z,49.92
2024-05-09T14:45:42.815Z,49.40
2024-05-09T14:48:11.842Z,49.56
2024-05-09T14:50:42.498Z,48.23
2024-05-09T14:53:11.441Z,48.35
2024-05-09T14:55:41.551Z,48.18
2024-05-09T14:58:11.520Z,47.91
2024-05-09T15:00:46.323Z,48.13
2024-05-09T15:03:18.925Z,50.18
2024-05-09T15:05:47.172Z,50.77
2024-05-09T15:08:17.579Z,51.78
2024-05-09T15:10:45.876Z,51.77
2024-05-09T15:13:16.410Z,51.75
2024-05-09T15:15:45.145Z,51.76
2024-05-09T15:18:14.395Z,51.39
2024-05-09T15:20:43.837Z,47.63
2024-05-09T15:23:11.730Z,49.10
2024-05-09T15:25:40.636Z,49.56
2024-05-09T15:28:08.602Z,50.26
2024-05-09T15:30:36.960Z,50.06
2024-05-09T15:33:06.472Z,49.55
2024-05-09T15:35:35.789Z,48.38
2024-05-09T15:38:04.539Z,45.86
2024-05-09T15:40:39.055Z,46.27
2024-05-09T15:43:10.314Z,45.92
2024-05-09T15:45:40.843Z,45.57
2024-05-09T15:48:09.735Z,45.64
2024-05-09T15:50:41.231Z,47.16
2024-05-09T15:53:13.243Z,47.06
2024-05-09T15:55:42.621Z,46.12
2024-05-09T15:58:11.099Z,45.88
2024-05-09T16:00:42.265Z,45.40
2024-05-09T16:03:12.741Z,45.94
2024-05-09T16:05:45.524Z,43.21
2024-05-09T16:08:14.866Z,44.24
2024-05-09T16:10:45.989Z,43.90
2024-05-09T16:13:15.942Z,43.03
2024-05-09T16:15:44.170Z,43.28
2024-05-09T16:18:12.798Z,44.28
2024-05-09T16:20:42.500Z,44.48
2024-05-09T16:23:13.074Z,43.67
2024-05-09T16:25:45.405Z,43.30
2024-05-09T16:28:13.656Z,43.29
2024-05-09T16:30:41.509Z,43.72
2024-05-09T16:33:11.074Z,43.84
2024-05-09T16:35:39.749Z,44.03
2024-05-09T16:38:07.578Z,44.17
2024-05-09T16:40:39.657Z,44.09
2024-05-09T16:43:12.819Z,43.12
2024-05-09T16:45:44.286Z,42.87
2024-05-09T16:48:14.076Z,43.05
2024-05-09T16:50:42.219Z,43.90
2024-05-09T16:53:09.907Z,44.44
2024-05-09T16:55:38.801Z,44.45
2024-05-09T16:58:08.447Z,43.38
2024-05-09T17:00:41.539Z,43.36
2024-05-09T17:03:14.709Z,43.71
2024-05-09T17:05:46.445Z,44.04
2024-05-09T17:08:15.955Z,44.67
2024-05-09T17:10:45.546Z,44.73
2024-05-09T17:13:13.404Z,44.86
2024-05-09T17:15:41.602Z,45.38
2024-05-09T17:18:10.010Z,45.38
2024-05-09T17:20:38.126Z,45.50
2024-05-09T17:23:13.714Z,45.81
2024-05-09T17:25:42.612Z,46.30
2024-05-09T17:28:11.001Z,46.81
2024-05-09T17:30:41.004Z,47.17
2024-05-09T17:33:11.078Z,46.63
2024-05-09T17:35:39.739Z,46.63
2024-05-09T17:38:07.769Z,46.51
2024-05-09T17:40:37.569Z,46.47
2024-05-09T17:43:09.001Z,46.55
2024-05-09T17:45:40.192Z,47.11
2024-05-09T17:48:10.396Z,47.23
2024-05-09T17:50:39.436Z,47.62
2024-05-09T17:53:08.429Z,47.51
2024-05-09T17:55:36.779Z,48.08
2024-05-09T17:58:05.493Z,48.41
2024-05-09T18:00:39.169Z,47.94
2024-05-09T18:03:14.084Z,47.82
2024-05-09T18:05:44.036Z,47.98
2024-05-09T18:08:13.264Z,48.21
2024-05-09T18:10:41.758Z,48.42
2024-05-09T18:13:12.221Z,48.32
2024-05-09T18:15:40.812Z,48.68
2024-05-09T18:18:09.329Z,49.07
2024-05-09T18:20:42.995Z,49.58
2024-05-09T18:23:18.294Z,49.81
2024-05-09T18:25:47.475Z,49.59
2024-05-09T18:28:17.219Z,49.34
2024-05-09T18:30:45.511Z,49.44
2024-05-09T18:33:13.507Z,49.80
2024-05-09T18:35:44.062Z,50.06
2024-05-09T18:38:11.898Z,50.23
2024-05-09T18:40:41.704Z,50.88
2024-05-09T18:43:11.406Z,51.28
2024-05-09T18:45:39.565Z,51.55
2024-05-09T18:48:10.038Z,51.93
2024-05-09T18:50:40.479Z,52.36
2024-05-09T18:53:13.202Z,52.47
2024-05-09T18:55:42.619Z,52.69
2024-05-09T18:58:11.027Z,52.66
2024-05-09T19:00:41.489Z,53.03
2024-05-09T19:03:13.789Z,53.76
2024-05-09T19:05:44.210Z,53.47
2024-05-09T19:08:13.409Z,53.38
2024-05-09T19:10:41.534Z,53.33
2024-05-09T19:13:12.435Z,53.48
2024-05-09T19:15:42.905Z,54.19
2024-05-09T19:18:13.115Z,54.91
2024-05-09T19:20:41.694Z,55.32
2024-05-09T19:23:10.993Z,55.65
2024-05-09T19:25:38.867Z,55.69
2024-05-09T19:28:06.773Z,55.73
2024-05-09T19:30:40.095Z,56.18
2024-05-09T19:33:14.192Z,56.09
2024-05-09T19:35:43.245Z,56.75
2024-05-09T19:38:12.208Z,57.28
2024-05-09T19:40:41.666Z,57.13
2024-05-09T19:43:09.694Z,57.43
2024-05-09T19:45:37.581Z,58.47
2024-05-09T19:48:06.638Z,58.38
2024-05-09T19:50:41.549Z,58.40
2024-05-09T19:53:13.593Z,58.42
2024-05-09T19:55:42.498Z,58.44
2024-05-09T19:58:10.797Z,58.47
2024-05-09T20:00:41.734Z,58.94
2024-05-09T20:03:15.350Z,60.09
2024-05-09T20:05:46.278Z,60.57
2024-05-09T20:08:14.619Z,61.03
2024-05-09T20:10:42.349Z,61.01
2024-05-09T20:13:10.302Z,60.90
2024-05-09T20:15:38.373Z,61.56
2024-05-09T20:18:07.265Z,61.54
2024-05-09T20:20:39.737Z,62.15
2024-05-09T20:23:11.515Z,62.45
2024-05-09T20:25:39.398Z,62.98
2024-05-09T20:28:07.582Z,63.28
2024-05-09T20:30:36.450Z,63.21
2024-05-09T20:33:07.329Z,63.43
2024-05-09T20:35:36.631Z,63.47
2024-05-09T20:38:04.845Z,63.72
2024-05-09T20:40:37.058Z,63.82
2024-05-09T20:43:08.798Z,64.54
2024-05-09T20:45:36.871Z,64.58
2024-05-09T20:48:05.296Z,65.39
2024-05-09T20:50:38.812Z,64.62
2024-05-09T20:53:11.200Z,65.10
2024-05-09T20:55:40.034Z,66.03
2024-05-09T20:58:08.422Z,66.00
2024-05-09T21:00:40.429Z,66.43
2024-05-09T21:03:12.733Z,66.64
2024-05-09T21:05:41.333Z,67.28
2024-05-09T21:08:09.847Z,67.80
2024-05-09T21:10:37.981Z,68.06
2024-05-09T21:13:06.831Z,68.27
2024-05-09T21:15:35.728Z,69.31
2024-05-09T21:18:04.825Z,69.85
2024-05-09T21:20:35.016Z,70.00
2024-05-09T21:23:03.750Z,69.99
2024-05-09T21:25:32.141Z,70.64
2024-05-09T21:28:00.670Z,70.29
2024-05-09T21:30:38.400Z,70.76
2024-05-09T21:33:11.904Z,71.53
2024-05-09T21:35:42.252Z,71.95
2024-05-09T21:38:10.186Z,72.49
2024-05-09T21:40:38.674Z,72.40
2024-05-09T21:43:07.627Z,72.45
2024-05-09T21:45:37.097Z,73.17
2024-05-09T21:48:06.308Z,74.36
2024-05-09T21:50:40.038Z,75.86
2024-05-09T21:53:13.489Z,76.42
2024-05-09T21:55:42.514Z,77.54
2024-05-09T21:58:11.614Z,78.10
2024-05-09T22:00:43.052Z,79.03
2024-05-09T22:03:12.049Z,79.49
2024-05-09T22:05:42.487Z,81.60
2024-05-09T22:08:11.000Z,83.25
2024-05-09T22:10:39.024Z,84.96
2024-05-09T22:13:07.561Z,85.96
2024-05-09T22:15:37.455Z,87.50
2024-05-09T22:18:08.050Z,87.14
2024-05-09T22:20:39.325Z,87.51
2024-05-09T22:23:08.593Z,88.93
2024-05-09T22:25:38.536Z,89.49
2024-05-09T22:28:06.816Z,90.89
2024-05-09T22:30:38.268Z,92.30
2024-05-09T22:33:10.118Z,93.61
2024-05-09T22:35:40.557Z,95.15
2024-05-09T22:38:08.860Z,95.79
2024-05-09T22:40:45.778Z,96.03
2024-05-09T22:43:24.488Z,97.27
2024-05-09T22:45:56.674Z,96.82
2024-05-09T22:48:25.593Z,98.04
2024-05-09T22:50:54.471Z,99.57
2024-05-09T22:53:26.265Z,99.75
2024-05-09T22:55:54.257Z,100.00
2024-05-09T22:58:23.301Z,100.00
2024-05-09T23:00:51.421Z,100.00
2024-05-09T23:03:21.755Z,100.00
2024-05-09T23:05:50.229Z,100.00
2024-05-09T23:08:17.813Z,100.00
2024-05-09T23:10:45.653Z,100.00
2024-05-09T23:13:13.406Z,100.00
2024-05-09T23:15:41.206Z,100.00
2024-05-09T23:18:09.104Z,100.00
2024-05-09T23:20:39.994Z,100.00
2024-05-09T23:23:10.441Z,100.00
2024-05-09T23:25:41.648Z,100.00
2024-05-09T23:28:10.911Z,100.00
2024-05-09T23:30:40.689Z,100.00
2024-05-09T23:33:11.268Z,100.00
2024-05-09T23:35:40.883Z,100.00
2024-05-09T23:38:08.496Z,100.00
2024-05-09T23:40:39.703Z,100.00
2024-05-09T23:43:11.605Z,100.00
2024-05-09T23:45:40.492Z,100.00
2024-05-09T23:48:09.016Z,100.00
2024-05-09T23:50:38.905Z,100.00
2024-05-09T23:53:09.378Z,100.00
2024-05-09T23:55:38.084Z,100.00
2024-05-09T23:58:06.644Z,100.00
